Time;durP1;ratioP1;P1;durP2;ratioP2;P2;SDS_P1;SDS_P2;PMS_P1;PMS_P2;Temp;Humidity;BMP_temperature;BMP_pressure;BME280_temperature;BME280_humidity;BME280_pressure;Samples;Min_cycle;Max_cycle;Signal;HPM_P1;HPM_P2
2022/11/05 00:10:07;;;;;;;;;;;;;;;8.76;80.94;99296.22;5028627;28;1918;-77
2022/11/05 00:18:02;;;;;;;;;;;;;;;8.75;80.98;99283.84;5008712;28;1515;-77
2022/11/05 00:20:28;;;;;;;;;;;;;;;8.71;80.84;99293.44;5010602;28;1886;-77
2022/11/05 00:25:39;;;;;;;;;;;;;;;8.77;80.58;99298.66;5010667;28;1573;-76
2022/11/05 00:28:05;;;;;;;;;;;;;;;8.78;80.91;99307.53;5027004;28;3147;-77
2022/11/05 00:30:31;;;;;;;;;;;;;;;8.68;81.29;99307.31;5022842;28;2310;-77
2022/11/05 00:32:58;;;;;;;;;;;;;;;8.73;80.93;99302.88;5028175;28;1655;-77
2022/11/05 00:35:24;;;;;;;;;;;;;;;8.86;80.64;99299.91;5006172;28;5403;-77
2022/11/05 00:37:50;;;;;;;;;;;;;;;8.80;80.39;99298.19;5027778;28;5459;-77
2022/11/05 00:40:16;;;;;;;;;;;;;;;8.69;80.82;99298.22;5028556;28;1934;-76
2022/11/05 00:45:27;;;;;;;;;;;;;;;8.76;81.05;99296.22;5027144;28;1581;-76
2022/11/05 00:50:37;;;;;;;;;;;;;;;8.79;80.65;99290.34;5025035;28;2574;-77
2022/11/05 00:53:03;;;;;;;;;;;;;;;8.68;81.31;99285.84;5027219;28;3458;-77
2022/11/05 00:55:32;;;;;;;;;;;;;;;9.00;80.24;99286.19;5010987;28;3962;-76
2022/11/05 00:57:58;;;;;;;;;;;;;;;9.01;79.87;99283.28;5005873;28;3183;-77
2022/11/05 01:00:25;;;;;;;;;;;;;;;8.75;80.96;99283.84;5018666;28;3115;-76
2022/11/05 01:02:51;;;;;;;;;;;;;;;8.92;80.44;99284.72;5007185;28;1806;-77
2022/11/05 01:05:17;;;;;;;;;;;;;;;9.05;79.60;99283.59;5027721;28;1576;-76
2022/11/05 01:07:43;;;;;;;;;;;;;;;8.85;80.47;99284.03;5029591;28;3199;-76
2022/11/05 01:10:10;;;;;;;;;;;;;;;8.99;80.09;99290.75;5026617;28;1914;-76
2022/11/05 01:12:36;;;;;;;;;;;;;;;8.91;80.26;99295.69;5024532;28;1667;-77
2022/11/05 01:15:02;;;;;;;;;;;;;;;9.13;79.48;99285.91;5033981;28;1750;-77
2022/11/05 01:17:29;;;;;;;;;;;;;;;9.31;78.64;99288.38;5026794;28;1611;-77
2022/11/05 01:19:55;;;;;;;;;;;;;;;9.10;79.26;99283.72;5023758;28;2365;-76
2022/11/05 01:22:21;;;;;;;;;;;;;;;9.00;79.55;99292.41;5033822;28;1698;-77
2022/11/05 01:24:47;;;;;;;;;;;;;;;9.04;79.50;99280.13;5025354;28;3356;-77
2022/11/05 01:27:14;;;;;;;;;;;;;;;9.12;79.55;99288.81;5020485;28;3281;-76
2022/11/05 01:29:40;;;;;;;;;;;;;;;8.95;79.65;99286.94;5008286;28;1906;-77
2022/11/05 01:32:06;;;;;;;;;;;;;;;9.26;79.05;99287.47;5004133;28;1719;-77
2022/11/05 01:34:33;;;;;;;;;;;;;;;9.03;79.69;99280.34;5009736;28;1828;-76
2022/11/05 01:36:59;;;;;;;;;;;;;;;9.20;78.78;99288.44;5029176;28;1860;-76
2022/11/05 01:39:25;;;;;;;;;;;;;;;9.37;78.05;99278.53;5026547;28;1605;-76
2022/11/05 01:41:52;;;;;;;;;;;;;;;8.99;79.68;99273.84;5022430;28;1772;-77
2022/11/05 01:44:18;;;;;;;;;;;;;;;9.17;79.15;99278.19;5032536;28;1702;-76
2022/11/05 01:46:44;;;;;;;;;;;;;;;9.05;79.14;99271.00;5024364;28;5458;-76
2022/11/05 01:49:10;;;;;;;;;;;;;;;8.98;79.66;99269.53;5028125;28;1910;-77
2022/11/05 01:51:37;;;;;;;;;;;;;;;8.97;80.36;99268.72;5026633;28;5327;-77
2022/11/05 01:54:03;;;;;;;;;;;;;;;9.02;79.67;99262.59;5022548;28;3496;-77
2022/11/05 01:56:29;;;;;;;;;;;;;;;9.16;79.16;99266.63;5007989;28;1939;-76
2022/11/05 01:58:56;;;;;;;;;;;;;;;8.95;80.09;99259.28;5026299;28;1611;-76
2022/11/05 02:01:22;;;;;;;;;;;;;;;9.01;79.46;99264.47;5002231;28;1891;-76
2022/11/05 02:03:48;;;;;;;;;;;;;;;8.87;80.29;99261.25;5033535;28;3881;-76
2022/11/05 02:06:14;;;;;;;;;;;;;;;9.08;79.10;99259.75;5024410;28;1741;-76
2022/11/05 02:08:41;;;;;;;;;;;;;;;9.07;79.19;99244.72;5006771;28;1926;-76
2022/11/05 02:11:07;;;;;;;;;;;;;;;9.00;79.66;99260.19;5026623;28;1588;-76
2022/11/05 02:13:33;;;;;;;;;;;;;;;8.88;80.00;99256.69;5016392;28;1707;-77
2022/11/05 02:16:00;;;;;;;;;;;;;;;9.00;79.67;99260.19;5021458;28;2890;-77
2022/11/05 02:18:26;;;;;;;;;;;;;;;9.11;79.49;99258.47;5028625;28;1930;-77
2022/11/05 02:20:52;;;;;;;;;;;;;;;8.94;80.13;99269.19;5004160;28;4313;-77
2022/11/05 02:23:19;;;;;;;;;;;;;;;8.88;80.27;99254.03;5025586;28;3070;-77
2022/11/05 02:25:45;;;;;;;;;;;;;;;8.81;80.65;99258.72;5006216;28;2124;-77
2022/11/05 02:28:11;;;;;;;;;;;;;;;8.67;81.01;99257.38;5004222;28;1638;-77
2022/11/05 02:30:37;;;;;;;;;;;;;;;8.78;80.63;99253.84;5026237;28;2011;-77
2022/11/05 02:33:04;;;;;;;;;;;;;;;8.62;81.50;99258.09;5023448;28;1835;-77
2022/11/05 02:35:30;;;;;;;;;;;;;;;8.60;81.34;99254.84;5025117;28;2144;-77
2022/11/05 02:37:56;;;;;;;;;;;;;;;8.82;80.75;99238.88;5027943;28;1859;-77
2022/11/05 02:40:23;;;;;;;;;;;;;;;8.70;81.27;99243.47;5023108;28;3962;-76
2022/11/05 02:42:49;;;;;;;;;;;;;;;8.63;81.14;99239.06;5017171;28;3094;-77
2022/11/05 02:45:15;;;;;;;;;;;;;;;8.68;81.01;99248.25;5004247;28;2090;-77
2022/11/05 02:47:42;;;;;;;;;;;;;;;8.63;81.62;99254.38;5029340;28;1711;-77
2022/11/05 02:50:08;;;;;;;;;;;;;;;8.95;79.85;99249.34;5029383;28;1914;-77
2022/11/05 02:52:34;;;;;;;;;;;;;;;8.71;81.27;99250.50;5028149;28;3074;-77
2022/11/05 02:55:01;;;;;;;;;;;;;;;9.15;79.56;99253.44;5005483;28;5723;-77
2022/11/05 02:57:27;;;;;;;;;;;;;;;8.86;80.38;99248.09;5025857;28;3484;-77
2022/11/05 02:59:53;;;;;;;;;;;;;;;8.82;80.81;99249.63;5020635;28;3866;-77
2022/11/05 03:02:20;;;;;;;;;;;;;;;8.80;80.49;99241.81;5023839;28;2036;-77
2022/11/05 03:04:46;;;;;;;;;;;;;;;9.13;79.51;99253.69;5025222;28;1528;-77
2022/11/05 03:07:12;;;;;;;;;;;;;;;8.99;79.94;99250.47;5021573;28;1921;-76
2022/11/05 03:09:39;;;;;;;;;;;;;;;8.97;80.00;99244.53;5007532;28;1966;-77
2022/11/05 03:12:05;;;;;;;;;;;;;;;8.81;80.79;99239.94;5004731;28;3782;-77
2022/11/05 03:14:31;;;;;;;;;;;;;;;8.77;80.74;99247.66;5026499;28;2032;-76
2022/11/05 03:16:57;;;;;;;;;;;;;;;8.69;80.95;99245.34;5019561;28;3304;-76
2022/11/05 03:19:24;;;;;;;;;;;;;;;8.78;80.93;99243.09;5023984;28;1903;-77
2022/11/05 03:21:50;;;;;;;;;;;;;;;8.74;80.74;99241.97;5026271;28;2029;-77
2022/11/05 03:24:16;;;;;;;;;;;;;;;8.97;80.06;99254.44;5047398;28;3100;-77
2022/11/05 03:26:43;;;;;;;;;;;;;;;8.69;81.07;99244.53;5050671;28;2130;-77
2022/11/05 03:29:09;;;;;;;;;;;;;;;8.61;81.12;99246.53;5048583;28;2064;-77
2022/11/05 03:31:35;;;;;;;;;;;;;;;8.87;80.42;99242.47;5053264;28;2009;-77
2022/11/05 03:34:01;;;;;;;;;;;;;;;8.85;80.10;99233.03;5034015;28;1961;-77
2022/11/05 03:36:28;;;;;;;;;;;;;;;8.82;80.52;99238.88;5045246;28;2019;-77
2022/11/05 03:38:54;;;;;;;;;;;;;;;8.67;80.87;99239.41;5027816;28;1924;-77
2022/11/05 03:41:20;;;;;;;;;;;;;;;8.66;81.06;99236.97;5034663;28;2067;-77
2022/11/05 03:43:46;;;;;;;;;;;;;;;8.76;80.91;99234.47;5042097;28;3414;-77
2022/11/05 03:46:13;;;;;;;;;;;;;;;8.88;80.14;99229.84;5048866;28;1925;-77
2022/11/05 03:48:39;;;;;;;;;;;;;;;8.71;80.64;99235.19;5054428;28;2014;-77
2022/11/05 03:51:05;;;;;;;;;;;;;;;8.69;80.97;99229.25;5042973;28;1893;-77
2022/11/05 03:53:32;;;;;;;;;;;;;;;8.65;81.48;99228.09;5057215;28;1179;-77
2022/11/05 03:55:58;;;;;;;;;;;;;;;8.65;80.89;99230.78;5037694;28;1909;-77
2022/11/05 03:58:24;;;;;;;;;;;;;;;8.91;80.16;99233.94;5046933;28;5439;-77
2022/11/05 04:00:51;;;;;;;;;;;;;;;8.70;80.70;99225.50;5022232;28;5286;-77
2022/11/05 04:03:17;;;;;;;;;;;;;;;8.72;80.97;99238.69;5052915;28;5259;-77
2022/11/05 04:13:22;;;;;;;;;;;;;;;8.77;80.77;99236.94;5025056;28;4105;-77
2022/11/05 04:14:00;;;;;;;;;;;;;;;8.80;80.52;99239.13;5054802;28;1892;-77
2022/11/05 04:19:10;;;;;;;;;;;;;;;8.68;80.78;99241.06;5052978;28;1950;-77
2022/11/05 04:24:24;;;;;;;;;;;;;;;8.69;80.96;99236.50;4995064;28;2214;-77
2022/11/05 04:26:50;;;;;;;;;;;;;;;8.75;80.76;99239.03;5015353;28;1562;-77
2022/11/05 04:32:00;;;;;;;;;;;;;;;9.03;79.77;99245.44;5034055;28;1501;-77
2022/11/05 04:34:27;;;;;;;;;;;;;;;8.67;80.85;99247.44;5033649;28;1751;-77
2022/11/05 04:36:53;;;;;;;;;;;;;;;8.99;79.94;99241.59;5021530;28;1946;-77
2022/11/05 04:39:19;;;;;;;;;;;;;;;8.91;79.92;99244.66;5028631;28;1616;-77
2022/11/05 04:41:46;;;;;;;;;;;;;;;8.77;80.62;99241.47;5033765;28;1573;-77
2022/11/05 04:44:13;;;;;;;;;;;;;;;8.88;80.56;99237.91;5025184;28;3165;-77
2022/11/05 04:46:39;;;;;;;;;;;;;;;8.67;80.76;99235.91;5011821;28;1819;-77
2022/11/05 04:49:05;;;;;;;;;;;;;;;8.82;80.52;99234.34;5017351;28;2043;-77
2022/11/05 04:51:31;;;;;;;;;;;;;;;8.80;80.36;99241.00;5013414;28;3320;-77
2022/11/05 04:53:58;;;;;;;;;;;;;;;9.16;79.25;99238.97;5035718;28;3098;-77
2022/11/05 04:56:24;;;;;;;;;;;;;;;8.97;80.02;99243.72;5012912;28;4341;-77
2022/11/05 04:58:50;;;;;;;;;;;;;;;8.91;79.93;99244.66;5032085;28;3437;-77
2022/11/05 05:01:17;;;;;;;;;;;;;;;8.72;80.70;99239.50;5031089;28;5435;-77
2022/11/05 05:03:43;;;;;;;;;;;;;;;8.68;80.85;99243.72;5013716;28;5053;-78
2022/11/05 05:06:09;;;;;;;;;;;;;;;8.88;80.32;99237.91;5033231;28;5336;-78
2022/11/05 05:08:35;;;;;;;;;;;;;;;8.80;80.56;99241.81;5033763;28;1785;-77
2022/11/05 05:11:02;;;;;;;;;;;;;;;8.80;80.66;99246.38;5033072;28;1937;-77
2022/11/05 05:13:28;;;;;;;;;;;;;;;8.35;80.57;99188.03;5015013;28;1508;-77
2022/11/05 05:15:54;;;;;;;;;;;;;;;8.87;80.21;99252.41;5025740;28;4248;-77
2022/11/05 05:18:21;;;;;;;;;;;;;;;8.80;80.46;99247.19;5034744;28;3836;-78
2022/11/05 05:23:31;;;;;;;;;;;;;;;8.70;80.53;99246.97;5030198;28;2080;-77
2022/11/05 05:25:57;;;;;;;;;;;;;;;8.63;81.19;99257.03;5035909;28;1955;-77
2022/11/05 05:28:23;;;;;;;;;;;;;;;8.95;80.29;99257.41;5027776;28;3211;-77
2022/11/05 05:30:49;;;;;;;;;;;;;;;8.69;80.69;99248.03;5032208;28;2875;-77
2022/11/05 05:33:16;;;;;;;;;;;;;;;8.99;79.67;99260.41;5037276;28;1757;-77
2022/11/05 05:35:42;;;;;;;;;;;;;;;8.78;80.39;99256.53;5032596;28;2472;-77
2022/11/05 05:38:08;;;;;;;;;;;;;;;8.77;80.42;99253.03;5012606;28;1859;-77
2022/11/05 05:40:35;;;;;;;;;;;;;;;8.82;80.70;99260.34;5014475;28;1549;-77
2022/11/05 05:43:01;;;;;;;;;;;;;;;8.70;80.69;99252.34;5031133;28;1800;-77
2022/11/05 05:45:28;;;;;;;;;;;;;;;8.68;80.93;99256.31;5033370;28;1760;-77
2022/11/05 05:47:54;;;;;;;;;;;;;;;8.76;80.57;99255.94;5011873;28;4474;-77
2022/11/05 05:50:20;;;;;;;;;;;;;;;8.91;80.20;99253.53;5016536;28;1946;-77
2022/11/05 05:52:46;;;;;;;;;;;;;;;8.92;79.92;99260.56;5033173;28;1701;-77
2022/11/05 05:55:13;;;;;;;;;;;;;;;8.66;80.70;99259.25;5015926;28;2052;-76
2022/11/05 05:57:39;;;;;;;;;;;;;;;8.90;79.90;99256.47;5034613;28;1713;-77
2022/11/05 06:00:05;;;;;;;;;;;;;;;8.96;79.86;99259.00;5008385;28;1991;-77
2022/11/05 06:02:31;;;;;;;;;;;;;;;8.74;80.49;99255.38;5029215;28;3247;-77
2022/11/05 06:04:58;;;;;;;;;;;;;;;8.75;80.77;99252.44;5030183;28;3260;-77
2022/11/05 06:07:24;;;;;;;;;;;;;;;8.59;81.44;99247.84;5032183;28;1737;-77
2022/11/05 06:09:50;;;;;;;;;;;;;;;8.69;80.61;99252.59;5027870;28;6034;-77
2022/11/05 06:12:17;;;;;;;;;;;;;;;8.66;81.03;99261.13;5033466;28;5300;-77
2022/11/05 06:14:43;;;;;;;;;;;;;;;8.85;80.10;99255.34;5048614;28;3454;-77
2022/11/05 06:17:09;;;;;;;;;;;;;;;9.03;79.62;99256.16;5045366;28;3404;-77
2022/11/05 06:19:35;;;;;;;;;;;;;;;8.73;80.49;99256.41;5051325;28;3365;-77
2022/11/05 06:22:02;;;;;;;;;;;;;;;8.85;80.42;99255.34;5047801;28;3826;-77
2022/11/05 06:24:28;;;;;;;;;;;;;;;8.72;80.61;99260.16;5041836;28;4332;-77
2022/11/05 06:26:54;;;;;;;;;;;;;;;8.72;80.36;99257.47;5044608;28;3538;-77
2022/11/05 06:29:20;;;;;;;;;;;;;;;8.79;80.29;99260.84;5045897;28;1918;-77
2022/11/05 06:31:47;;;;;;;;;;;;;;;8.63;81.12;99259.72;5031221;28;3331;-77
2022/11/05 06:34:13;;;;;;;;;;;;;;;8.71;80.92;99270.09;5013046;28;3048;-77
2022/11/05 06:36:40;;;;;;;;;;;;;;;8.68;80.59;99259.84;5011864;28;3808;-77
2022/11/05 06:39:06;;;;;;;;;;;;;;;9.10;78.96;99263.03;5028090;28;4431;-77
2022/11/05 06:41:33;;;;;;;;;;;;;;;8.81;79.90;99262.22;5032371;28;4359;-77
2022/11/05 06:43:59;;;;;;;;;;;;;;;8.71;80.49;99266.59;5046482;28;3842;-78
2022/11/05 06:46:25;;;;;;;;;;;;;;;8.97;79.48;99257.97;5049360;28;3502;-78
2022/11/05 06:48:52;;;;;;;;;;;;;;;9.06;79.35;99259.22;5046842;28;3470;-78
2022/11/05 06:51:18;;;;;;;;;;;;;;;8.87;79.68;99257.78;5034886;28;2142;-78
2022/11/05 06:53:44;;;;;;;;;;;;;;;8.93;79.60;99264.88;5033608;28;2030;-78
2022/11/05 06:56:12;;;;;;;;;;;;;;;8.80;80.00;99263.28;5028997;28;3552;-78
2022/11/05 06:58:38;;;;;;;;;;;;;;;8.58;81.08;99265.78;5052815;28;3901;-78
2022/11/05 07:01:04;;;;;;;;;;;;;;;8.61;80.89;99275.25;5043583;28;3877;-78
2022/11/05 07:03:30;;;;;;;;;;;;;;;8.61;80.91;99277.94;5019777;28;3550;-78
2022/11/05 07:05:57;;;;;;;;;;;;;;;8.53;81.13;99275.59;5034262;28;1212;-78
2022/11/05 07:08:23;;;;;;;;;;;;;;;8.62;80.86;99269.66;5036178;28;1204;-78
2022/11/05 07:10:50;;;;;;;;;;;;;;;8.59;81.05;99262.09;5046119;28;3621;-78
2022/11/05 07:13:16;;;;;;;;;;;;;;;8.70;80.79;99263.06;5050072;28;3564;-78
2022/11/05 07:15:42;;;;;;;;;;;;;;;8.81;80.17;99256.84;5034476;28;3594;-78
2022/11/05 07:18:09;;;;;;;;;;;;;;;8.75;80.39;99259.69;5045424;28;5654;-78
2022/11/05 07:20:35;;;;;;;;;;;;;;;8.55;81.21;99258.22;5041547;28;3977;-78
2022/11/05 07:23:02;;;;;;;;;;;;;;;8.57;81.06;99258.81;5043653;28;3550;-77
2022/11/05 07:25:28;;;;;;;;;;;;;;;8.59;81.54;99264.75;5037920;28;3191;-77
2022/11/05 07:27:55;;;;;;;;;;;;;;;8.75;80.71;99262.38;5026663;28;1500;-78
2022/11/05 07:30:21;;;;;;;;;;;;;;;8.81;80.22;99269.47;5053599;28;1950;-78
2022/11/05 07:32:47;;;;;;;;;;;;;;;8.81;80.30;99256.84;5049634;28;1563;-78
2022/11/05 07:35:13;;;;;;;;;;;;;;;8.68;80.73;99265.22;5044113;28;1975;-78
2022/11/05 07:37:40;;;;;;;;;;;;;;;8.53;81.05;99265.72;5052047;28;3651;-78
2022/11/05 07:40:06;;;;;;;;;;;;;;;8.80;80.18;99260.59;5055998;28;2037;-77
2022/11/05 07:42:32;;;;;;;;;;;;;;;8.84;80.11;99259.06;5056061;28;2093;-78
2022/11/05 07:44:59;;;;;;;;;;;;;;;8.78;80.20;99256.53;5056793;28;1687;-78
2022/11/05 07:47:28;;;;;;;;;;;;;;;8.66;80.76;99253.88;5075581;28;1221;-78
2022/11/05 07:49:54;;;;;;;;;;;;;;;8.54;81.08;99258.47;5055633;28;2749;-77
2022/11/05 07:52:20;;;;;;;;;;;;;;;8.66;80.73;99261.13;5037387;28;2007;-78
2022/11/05 07:54:47;;;;;;;;;;;;;;;8.74;80.35;99263.44;5065843;28;2322;-78
2022/11/05 07:57:13;;;;;;;;;;;;;;;8.75;80.50;99257.81;5054757;28;1503;-77
2022/11/05 07:59:39;;;;;;;;;;;;;;;8.77;80.23;99257.59;5049379;28;3916;-77
2022/11/05 08:02:06;;;;;;;;;;;;;;;8.95;79.64;99259.28;5047697;28;2442;-78
2022/11/05 08:04:32;;;;;;;;;;;;;;;8.97;79.61;99257.13;5057095;28;2719;-78
2022/11/05 08:07:01;;;;;;;;;;;;;;;8.91;79.53;99261.59;5067839;28;2331;-78
2022/11/05 08:09:27;;;;;;;;;;;;;;;8.70;80.51;99256.91;5054009;28;2009;-78
2022/11/05 08:11:56;;;;;;;;;;;;;;;8.91;79.48;99256.22;5054051;28;2384;-78
2022/11/05 08:14:22;;;;;;;;;;;;;;;9.00;79.45;99256.66;5044550;28;1844;-77
2022/11/05 08:16:48;;;;;;;;;;;;;;;8.79;80.21;99266.19;5040762;28;2302;-77
2022/11/05 08:19:15;;;;;;;;;;;;;;;8.91;79.63;99258.91;5018672;28;1668;-77
2022/11/05 08:21:41;;;;;;;;;;;;;;;9.07;79.10;99263.50;5028800;28;6482;-77
2022/11/05 08:24:07;;;;;;;;;;;;;;;8.95;79.54;99261.94;5041255;28;5366;-77
2022/11/05 08:26:34;;;;;;;;;;;;;;;8.78;80.16;99267.25;5026878;28;1656;-78
2022/11/05 08:29:00;;;;;;;;;;;;;;;8.75;80.25;99265.88;5031775;28;4792;-77
2022/11/05 08:31:26;;;;;;;;;;;;;;;8.85;79.80;99262.56;5053936;28;2129;-78
2022/11/05 08:33:53;;;;;;;;;;;;;;;9.09;79.08;99261.41;5056041;28;911;-78
2022/11/05 08:36:19;;;;;;;;;;;;;;;8.91;79.79;99260.78;5037254;28;1876;-78
2022/11/05 08:38:46;;;;;;;;;;;;;;;8.91;79.79;99266.16;5053562;28;2326;-78
2022/11/05 08:41:12;;;;;;;;;;;;;;;9.24;78.38;99266.25;5051964;28;3237;-78
2022/11/05 08:43:38;;;;;;;;;;;;;;;9.35;77.81;99269.09;5046710;28;1786;-78
2022/11/05 08:46:04;;;;;;;;;;;;;;;9.21;78.21;99265.91;5054440;28;2070;-78
2022/11/05 08:48:31;;;;;;;;;;;;;;;9.20;78.40;99264.25;5057276;28;1199;-78
2022/11/05 08:50:57;;;;;;;;;;;;;;;8.95;79.17;99260.06;5055098;28;2032;-78
2022/11/05 08:53:24;;;;;;;;;;;;;;;8.90;79.82;99262.66;5051226;28;2830;-78
2022/11/05 08:55:50;;;;;;;;;;;;;;;9.23;78.30;99253.84;5053201;28;1044;-78
2022/11/05 08:58:17;;;;;;;;;;;;;;;9.14;78.64;99255.31;5047906;28;2004;-78
2022/11/05 09:00:43;;;;;;;;;;;;;;;9.24;78.30;99262.75;5031151;28;2066;-78
2022/11/05 09:03:09;;;;;;;;;;;;;;;9.16;78.58;99258.56;5054698;28;2017;-78
2022/11/05 09:05:36;;;;;;;;;;;;;;;9.15;78.40;99258.78;5034936;28;1310;-78
2022/11/05 09:08:03;;;;;;;;;;;;;;;8.82;79.78;99257.66;5016140;28;1653;-78
2022/11/05 09:10:29;;;;;;;;;;;;;;;9.08;78.95;99256.28;5035997;28;5531;-78
2022/11/05 09:12:56;;;;;;;;;;;;;;;9.07;78.96;99257.34;5033096;28;1884;-78
2022/11/05 09:15:23;;;;;;;;;;;;;;;9.10;78.74;99263.03;5015540;28;1815;-78
2022/11/05 09:17:49;;;;;;;;;;;;;;;9.10;78.94;99257.66;5030228;28;2404;-78
2022/11/05 09:20:15;;;;;;;;;;;;;;;9.09;78.83;99260.59;5024768;28;1526;-78
2022/11/05 09:22:42;;;;;;;;;;;;;;;9.07;79.09;99260.03;5034265;28;1774;-78
2022/11/05 09:25:08;;;;;;;;;;;;;;;9.16;78.74;99269.31;5035329;28;1715;-78
2022/11/05 09:27:35;;;;;;;;;;;;;;;9.10;78.63;99270.28;5015881;28;1944;-78
2022/11/05 09:30:01;;;;;;;;;;;;;;;8.92;79.43;99271.28;5034974;28;1906;-78
2022/11/05 09:32:27;;;;;;;;;;;;;;;8.90;79.68;99273.41;5034900;28;1567;-78
2022/11/05 09:34:54;;;;;;;;;;;;;;;9.01;79.14;99282.47;5017431;28;1640;-78
2022/11/05 09:37:20;;;;;;;;;;;;;;;8.91;79.40;99279.56;5014340;28;1695;-78
2022/11/05 09:39:47;;;;;;;;;;;;;;;8.85;79.82;99279.50;5013294;28;1613;-78
2022/11/05 09:42:14;;;;;;;;;;;;;;;8.81;80.32;99269.47;5029101;28;5566;-78
2022/11/05 09:44:40;;;;;;;;;;;;;;;8.73;80.28;99280.56;5031527;28;5323;-78
2022/11/05 09:47:06;;;;;;;;;;;;;;;8.80;80.18;99275.91;5031857;28;1918;-78
2022/11/05 09:49:34;;;;;;;;;;;;;;;8.72;80.49;99278.97;5019797;28;5297;-78
2022/11/05 09:52:00;;;;;;;;;;;;;;;8.68;80.51;99281.31;5032299;28;1954;-78
2022/11/05 09:54:27;;;;;;;;;;;;;;;8.70;80.34;99281.06;5032143;28;1634;-78
2022/11/05 09:56:53;;;;;;;;;;;;;;;8.74;80.75;99283.03;5035857;28;1729;-78
2022/11/05 09:59:19;;;;;;;;;;;;;;;8.80;80.41;99283.97;5030178;28;1947;-78
2022/11/05 10:01:46;;;;;;;;;;;;;;;8.61;81.08;99286.78;5031885;28;3851;-78
2022/11/05 10:04:13;;;;;;;;;;;;;;;8.56;81.34;99285.88;5054204;28;1557;-79
2022/11/05 10:06:39;;;;;;;;;;;;;;;8.55;81.43;99281.56;5052527;28;2001;-78
2022/11/05 10:09:05;;;;;;;;;;;;;;;8.62;81.25;99290.31;5032958;28;3288;-78
2022/11/05 10:11:32;;;;;;;;;;;;;;;8.64;80.96;99280.94;5021544;28;4081;-79
2022/11/05 10:13:58;;;;;;;;;;;;;;;8.61;81.00;99283.28;5030576;28;2950;-78
2022/11/05 10:16:24;;;;;;;;;;;;;;;8.67;80.97;99278.84;5026931;28;1926;-78
2022/11/05 10:18:50;;;;;;;;;;;;;;;8.62;80.83;99276.91;5055376;28;1895;-78
2022/11/05 10:21:17;;;;;;;;;;;;;;;8.72;80.62;99276.28;5050343;28;1816;-78
2022/11/05 10:23:43;;;;;;;;;;;;;;;8.82;80.37;99276.47;5050644;28;1703;-78
2022/11/05 10:26:09;;;;;;;;;;;;;;;8.79;80.38;99283.13;5036926;28;1886;-77
2022/11/05 10:28:36;;;;;;;;;;;;;;;8.67;80.49;99276.16;5031501;28;3269;-77
2022/11/05 10:31:02;;;;;;;;;;;;;;;8.66;80.78;99277.22;5011278;28;2524;-77
2022/11/05 10:33:28;;;;;;;;;;;;;;;8.81;80.16;99281.03;5035253;28;1743;-77
2022/11/05 10:35:55;;;;;;;;;;;;;;;8.65;81.10;99281.78;5040051;28;2502;-78
2022/11/05 10:38:21;;;;;;;;;;;;;;;8.66;80.91;99277.22;5040741;28;1917;-77
2022/11/05 10:40:47;;;;;;;;;;;;;;;8.71;80.73;99285.41;5031849;28;1398;-77
2022/11/05 10:43:14;;;;;;;;;;;;;;;8.59;81.04;99280.88;5026547;28;1485;-77
2022/11/05 10:45:40;;;;;;;;;;;;;;;8.59;81.37;99282.75;5015584;28;1939;-77
2022/11/05 10:48:07;;;;;;;;;;;;;;;8.62;80.90;99285.75;5012212;28;2288;-77
2022/11/05 10:50:34;;;;;;;;;;;;;;;8.59;81.35;99288.09;4988805;28;5494;-77
2022/11/05 10:53:00;;;;;;;;;;;;;;;8.63;80.87;99292.75;4990667;28;5386;-77
2022/11/05 10:55:26;;;;;;;;;;;;;;;8.57;81.50;99290.19;5012795;28;1484;-77
2022/11/05 10:57:52;;;;;;;;;;;;;;;8.57;81.45;99292.88;4990116;28;4777;-77
2022/11/05 11:00:19;;;;;;;;;;;;;;;8.59;81.27;99291.59;5005021;28;1688;-77
2022/11/05 11:02:45;;;;;;;;;;;;;;;8.63;80.96;99294.63;5030245;28;1445;-77
2022/11/05 11:05:12;;;;;;;;;;;;;;;8.59;81.06;99299.66;5011941;28;1956;-77
2022/11/05 11:07:38;;;;;;;;;;;;;;;8.55;81.50;99298.47;5028748;28;1610;-77
2022/11/05 11:10:04;;;;;;;;;;;;;;;8.54;81.46;99299.53;5011584;28;4479;-77
2022/11/05 11:12:32;;;;;;;;;;;;;;;8.55;81.42;99305.72;5010786;28;1983;-77
2022/11/05 11:14:58;;;;;;;;;;;;;;;8.52;81.84;99311.56;5012704;28;1997;-77
2022/11/05 11:17:25;;;;;;;;;;;;;;;8.56;81.61;99318.06;4988354;28;3194;-77
2022/11/05 11:19:52;;;;;;;;;;;;;;;8.57;81.27;99314.34;4993303;28;2100;-77
2022/11/05 11:22:20;;;;;;;;;;;;;;;8.53;81.62;99311.34;5004786;28;2980;-77
2022/11/05 11:24:46;;;;;;;;;;;;;;;8.52;81.92;99312.38;5003666;28;1831;-77
2022/11/05 11:27:13;;;;;;;;;;;;;;;8.56;81.47;99318.06;4997170;28;1930;-77
2022/11/05 11:29:39;;;;;;;;;;;;;;;8.52;81.65;99319.59;5017250;28;1722;-77
2022/11/05 11:32:05;;;;;;;;;;;;;;;8.58;81.54;99321.34;5009837;28;2007;-77
2022/11/05 11:34:32;;;;;;;;;;;;;;;8.62;81.11;99323.34;5013609;28;1766;-77
2022/11/05 11:36:58;;;;;;;;;;;;;;;8.57;81.42;99325.09;4990002;28;1491;-77
2022/11/05 11:39:25;;;;;;;;;;;;;;;8.64;81.17;99326.56;5009560;28;1932;-77
2022/11/05 11:41:51;;;;;;;;;;;;;;;8.57;81.56;99333.16;5009600;28;1979;-77
2022/11/05 11:44:17;;;;;;;;;;;;;;;8.51;81.91;99336.78;4996161;28;1693;-77
2022/11/05 11:46:44;;;;;;;;;;;;;;;8.50;81.82;99341.34;5016381;28;1468;-77
2022/11/05 11:49:12;;;;;;;;;;;;;;;8.51;81.96;99342.13;5026032;28;1630;-77
2022/11/05 11:51:41;;;;;;;;;;;;;;;8.50;82.00;99338.66;5022285;28;1914;-77
2022/11/05 11:54:11;;;;;;;;;;;;;;;8.50;82.25;99337.81;5013055;28;5324;-77
2022/11/05 11:56:37;;;;;;;;;;;;;;;8.54;82.15;99337.09;5016828;28;4758;-77
2022/11/05 11:59:03;;;;;;;;;;;;;;;8.50;81.92;99349.38;5029161;28;1924;-77
2022/11/05 12:01:29;;;;;;;;;;;;;;;8.51;82.11;99342.13;5015998;28;4784;-77
2022/11/05 12:03:56;;;;;;;;;;;;;;;8.49;82.30;99342.34;5018804;28;1850;-77
2022/11/05 12:06:22;;;;;;;;;;;;;;;8.50;82.48;99345.84;5000376;28;1663;-77
2022/11/05 12:08:48;;;;;;;;;;;;;;;8.51;82.13;99347.50;5028007;28;1534;-77
2022/11/05 12:11:14;;;;;;;;;;;;;;;8.50;81.66;99344.00;5011352;28;1914;-77
2022/11/05 12:13:41;;;;;;;;;;;;;;;8.55;82.01;99344.09;5020082;28;3178;-77
2022/11/05 12:16:07;;;;;;;;;;;;;;;8.53;82.08;99342.69;5020199;28;3363;-77
2022/11/05 12:18:33;;;;;;;;;;;;;;;8.52;82.11;99344.56;5019343;28;3239;-77
2022/11/05 12:21:00;;;;;;;;;;;;;;;8.50;82.19;99349.38;5025818;28;1987;-77
2022/11/05 12:23:26;;;;;;;;;;;;;;;8.49;82.58;99339.69;5019306;28;1451;-77
2022/11/05 12:25:52;;;;;;;;;;;;;;;8.51;82.32;99342.13;5004668;28;3012;-78
2022/11/05 12:28:19;;;;;;;;;;;;;;;8.51;82.22;99336.78;5036549;28;1585;-77
2022/11/05 12:30:45;;;;;;;;;;;;;;;8.50;82.35;99337.81;5033588;28;2376;-77
2022/11/05 12:33:11;;;;;;;;;;;;;;;8.50;82.32;99340.50;5017267;28;2011;-77
2022/11/05 12:35:38;;;;;;;;;;;;;;;8.49;82.42;99337.00;5019646;28;1769;-77
2022/11/05 12:38:05;;;;;;;;;;;;;;;8.50;82.25;99337.81;5001775;28;2053;-77
2022/11/05 12:40:31;;;;;;;;;;;;;;;8.50;82.13;99341.34;5002512;28;1928;-77
2022/11/05 12:42:57;;;;;;;;;;;;;;;8.51;82.12;99339.47;5022120;28;1672;-77
2022/11/05 12:45:24;;;;;;;;;;;;;;;8.50;82.69;99335.97;5038160;28;3204;-77
2022/11/05 12:47:50;;;;;;;;;;;;;;;8.50;82.23;99337.81;5036789;28;3409;-77
2022/11/05 12:50:16;;;;;;;;;;;;;;;8.50;82.46;99330.59;5050445;28;4020;-77
2022/11/05 12:52:42;;;;;;;;;;;;;;;8.50;82.48;99335.97;5031508;28;4240;-77
2022/11/05 12:55:09;;;;;;;;;;;;;;;8.51;82.34;99332.22;5015978;28;3390;-77
2022/11/05 12:57:35;;;;;;;;;;;;;;;8.51;82.41;99339.47;5047022;28;3872;-77
2022/11/05 13:00:01;;;;;;;;;;;;;;;8.51;82.35;99336.78;5016925;28;3457;-77
2022/11/05 13:02:28;;;;;;;;;;;;;;;8.51;82.17;99345.63;5041987;28;5361;-77
2022/11/05 13:04:54;;;;;;;;;;;;;;;8.50;82.59;99344.00;5032999;28;3990;-78
2022/11/05 13:07:20;;;;;;;;;;;;;;;8.50;82.43;99344.00;5054292;28;3816;-78
2022/11/05 13:09:46;;;;;;;;;;;;;;;8.50;82.60;99340.50;5055463;28;1823;-77
2022/11/05 13:12:13;;;;;;;;;;;;;;;8.51;82.08;99344.81;5053174;28;2139;-78
2022/11/05 13:14:40;;;;;;;;;;;;;;;8.50;82.26;99352.06;5051272;28;1515;-77
2022/11/05 13:17:06;;;;;;;;;;;;;;;8.51;82.30;99340.25;5050466;28;1544;-77
2022/11/05 13:19:32;;;;;;;;;;;;;;;8.51;82.55;99344.81;5037279;28;3929;-77
2022/11/05 13:21:59;;;;;;;;;;;;;;;8.51;82.47;99344.81;5056082;28;1187;-78
2022/11/05 13:24:25;;;;;;;;;;;;;;;8.51;82.73;99350.19;5050263;28;1120;-78
2022/11/05 13:26:51;;;;;;;;;;;;;;;8.51;82.19;99355.56;5050598;28;1965;-78
2022/11/05 13:29:17;;;;;;;;;;;;;;;8.51;82.54;99358.25;5054414;28;2001;-77
2022/11/05 13:31:44;;;;;;;;;;;;;;;8.51;82.51;99352.88;5044502;28;3293;-77
2022/11/05 13:34:11;;;;;;;;;;;;;;;8.52;82.44;99354.50;5053512;28;2332;-77
2022/11/05 13:39:21;;;;;;;;;;;;;;;8.52;82.32;99357.19;5063405;28;2240;-77
2022/11/05 13:41:47;;;;;;;;;;;;;;;8.53;82.36;99359.63;5055425;28;1105;-78
2022/11/05 13:44:14;;;;;;;;;;;;;;;8.52;82.66;99363.34;5054176;28;1657;-77